Time;durP1;ratioP1;P1;durP2;ratioP2;P2;SDS_P1;SDS_P2;PMS_P1;PMS_P2;Temp;Humidity;BMP_temperature;BMP_pressure;BME280_temperature;BME280_humidity;BME280_pressure;Samples;Min_cycle;Max_cycle;Signal;HPM_P1;HPM_P2
2021/03/04 00:02:18;;;;;;;86.65;57.45;;;9.70;72.70;;;;;;5005096;28;20026;-77
2021/03/04 00:04:44;;;;;;;81.10;53.83;;;9.70;72.70;;;;;;5002885;28;20033;-77
2021/03/04 00:07:10;;;;;;;87.22;56.25;;;9.70;72.70;;;;;;5003514;28;20029;-77
2021/03/04 00:09:36;;;;;;;81.07;53.95;;;9.70;72.80;;;;;;5003672;28;20030;-78
2021/03/04 00:12:03;;;;;;;90.53;60.58;;;9.70;72.80;;;;;;5003618;28;20417;-78
2021/03/04 00:14:29;;;;;;;83.38;56.00;;;9.70;72.80;;;;;;5003594;28;20086;-78
2021/03/04 00:16:55;;;;;;;90.25;58.03;;;9.70;72.80;;;;;;5020049;28;20437;-79
2021/03/04 00:19:22;;;;;;;91.25;58.22;;;9.70;72.80;;;;;;5003758;28;20037;-76
2021/03/04 00:21:49;;;;;;;95.93;58.10;;;9.70;72.80;;;;;;5003457;28;20393;-78
2021/03/04 00:24:15;;;;;;;90.88;58.33;;;9.70;72.80;;;;;;5003864;28;20049;-79
2021/03/04 00:26:41;;;;;;;85.25;57.50;;;9.70;72.90;;;;;;5005324;28;20053;-78
2021/03/04 00:29:07;;;;;;;92.28;57.58;;;9.70;72.90;;;;;;5004817;28;20065;-79
2021/03/04 00:31:33;;;;;;;89.65;58.90;;;9.70;72.90;;;;;;5004829;28;20062;-78
2021/03/04 00:33:59;;;;;;;90.72;58.05;;;9.70;72.90;;;;;;5003702;28;20496;-77
2021/03/04 00:36:25;;;;;;;89.60;60.38;;;9.70;72.90;;;;;;5003750;28;20124;-77
2021/03/04 00:38:51;;;;;;;89.32;60.05;;;9.70;72.90;;;;;;5003389;28;20112;-77
2021/03/04 00:41:17;;;;;;;91.25;59.72;;;9.70;72.90;;;;;;5004915;28;20034;-77
2021/03/04 00:43:43;;;;;;;99.63;58.58;;;9.70;72.90;;;;;;5004713;28;20100;-77
2021/03/04 00:46:09;;;;;;;92.45;61.33;;;9.70;72.90;;;;;;5004497;28;20030;-77
2021/03/04 00:48:35;;;;;;;89.63;57.70;;;9.70;73.00;;;;;;5004288;28;20030;-76
2021/03/04 00:51:01;;;;;;;104.38;62.10;;;9.60;72.80;;;;;;5004919;28;20412;-76
2021/03/04 00:53:27;;;;;;;107.78;62.10;;;9.70;73.00;;;;;;5002990;28;20057;-78
2021/03/04 00:55:53;;;;;;;103.40;62.42;;;9.60;72.80;;;;;;5004769;28;20477;-78
2021/03/04 00:58:22;;;;;;;92.57;58.30;;;9.60;72.80;;;;;;5004238;28;20045;-77
2021/03/04 01:00:48;;;;;;;102.82;60.92;;;9.60;72.80;;;;;;5003620;28;20103;-77
2021/03/04 01:03:14;;;;;;;99.25;60.22;;;9.60;72.90;;;;;;5004529;28;20121;-77
2021/03/04 01:05:40;;;;;;;99.45;57.85;;;9.60;72.90;;;;;;5006269;28;20117;-76
2021/03/04 01:08:06;;;;;;;113.90;62.30;;;9.60;72.90;;;;;;5007924;28;20076;-78
2021/03/04 01:10:35;;;;;;;103.45;61.15;;;9.60;72.90;;;;;;5008436;28;20044;-77
2021/03/04 01:13:02;;;;;;;112.38;62.13;;;9.60;73.00;;;;;;5008164;28;20398;-77
2021/03/04 01:15:29;;;;;;;101.38;60.20;;;9.60;72.90;;;;;;5008295;28;20128;-76
2021/03/04 01:17:55;;;;;;;93.18;59.30;;;9.60;73.00;;;;;;5008577;28;20110;-77
2021/03/04 01:20:21;;;;;;;104.28;62.72;;;9.60;73.00;;;;;;5006508;28;20117;-77
2021/03/04 01:22:47;;;;;;;97.93;59.50;;;9.60;73.00;;;;;;5007782;28;20485;-78
2021/03/04 01:25:17;;;;;;;102.70;59.67;;;9.60;73.00;;;;;;5007006;28;20273;-77
2021/03/04 01:27:44;;;;;;;105.43;60.88;;;9.60;73.00;;;;;;5006348;28;20034;-79
2021/03/04 01:30:11;;;;;;;103.28;63.00;;;9.60;73.00;;;;;;5007003;28;20378;-78
2021/03/04 01:32:38;;;;;;;98.82;58.80;;;9.60;73.00;;;;;;5005940;28;20458;-79
2021/03/04 01:35:06;;;;;;;104.32;62.47;;;9.60;73.00;;;;;;5006058;28;20627;-78
2021/03/04 01:37:32;;;;;;;102.55;62.15;;;9.60;73.00;;;;;;5007957;28;20037;-78
2021/03/04 01:39:59;;;;;;;103.25;60.47;;;9.60;73.00;;;;;;5007875;28;20474;-79
2021/03/04 01:42:25;;;;;;;102.10;59.83;;;9.60;73.00;;;;;;5008221;28;20038;-79
2021/03/04 01:44:51;;;;;;;99.03;60.92;;;9.60;73.00;;;;;;5007789;28;20229;-78
2021/03/04 01:47:20;;;;;;;108.15;62.75;;;9.60;73.10;;;;;;5006058;28;20113;-78
2021/03/04 01:49:47;;;;;;;90.53;58.47;;;9.60;73.10;;;;;;5007737;28;20038;-78
2021/03/04 01:52:13;;;;;;;106.35;61.25;;;9.50;72.90;;;;;;5006331;28;20295;-78
2021/03/04 01:54:39;;;;;;;94.22;59.88;;;9.60;73.10;;;;;;5007821;28;20068;-79
2021/03/04 01:57:06;;;;;;;98.22;61.13;;;9.60;73.10;;;;;;5007236;28;20431;-78
2021/03/04 01:59:32;;;;;;;102.50;58.13;;;9.60;73.10;;;;;;5007160;28;20149;-77
2021/03/04 02:01:58;;;;;;;107.43;61.63;;;9.60;73.10;;;;;;5005571;28;20385;-77
2021/03/04 02:04:24;;;;;;;105.93;60.60;;;9.50;73.00;;;;;;5006421;28;20058;-78
2021/03/04 02:06:55;;;;;;;102.32;59.05;;;9.50;73.00;;;;;;5006980;28;20026;-79
2021/03/04 02:09:24;;;;;;;105.07;59.13;;;9.50;73.50;;;;;;5007835;28;20038;-78
2021/03/04 02:12:07;;;;;;;102.63;61.05;;;9.50;73.00;;;;;;5005844;28;20112;-78
2021/03/04 02:14:53;;;;;;;112.95;61.92;;;9.50;73.10;;;;;;5005609;28;20390;-78
2021/03/04 02:17:22;;;;;;;100.20;58.75;;;9.50;73.10;;;;;;5021000;28;20149;-77
2021/03/04 02:20:00;;;;;;;104.75;60.97;;;9.50;73.00;;;;;;5005005;28;20084;-79
2021/03/04 02:22:59;;;;;;;109.72;57.55;;;9.50;73.10;;;;;;5021801;28;20493;-79
2021/03/04 02:25:48;;;;;;;99.40;59.88;;;9.50;73.10;;;;;;5005338;28;20038;-78
2021/03/04 02:28:16;;;;;;;96.57;56.97;;;9.50;73.00;;;;;;4994961;28;20049;-78
2021/03/04 02:30:44;;;;;;;101.40;59.97;;;9.50;73.00;;;;;;5006547;28;20049;-78
2021/03/04 02:33:29;;;;;;;92.53;57.17;;;9.50;73.10;;;;;;5006799;28;20466;-78
2021/03/04 02:35:58;;;;;;;102.13;56.58;;;9.50;73.10;;;;;;5006764;28;20029;-77
2021/03/04 02:38:24;;;;;;;92.75;55.80;;;9.50;73.10;;;;;;5007332;28;20045;-76
2021/03/04 02:40:52;;;;;;;90.93;57.17;;;9.50;73.10;;;;;;5006646;28;20129;-77
2021/03/04 02:43:20;;;;;;;103.53;60.53;;;9.50;73.10;;;;;;5006208;28;20125;-78
2021/03/04 02:45:47;;;;;;;100.75;58.35;;;9.50;73.20;;;;;;5008375;28;20052;-77
2021/03/04 02:48:15;;;;;;;90.13;54.75;;;9.50;73.20;;;;;;5009615;28;20125;-79
2021/03/04 02:50:42;;;;;;;96.20;56.40;;;9.50;73.20;;;;;;5010732;28;20092;-78
2021/03/04 02:53:09;;;;;;;98.78;56.35;;;9.40;73.10;;;;;;5009891;28;20481;-78
2021/03/04 02:55:38;;;;;;;96.53;58.15;;;9.40;73.10;;;;;;5009295;28;20072;-78
2021/03/04 02:58:08;;;;;;;90.22;56.88;;;9.40;73.10;;;;;;5009590;28;20389;-78
2021/03/04 03:00:35;;;;;;;94.32;56.08;;;9.40;73.20;;;;;;5009456;28;20049;-78
2021/03/04 03:03:02;;;;;;;94.13;57.72;;;9.40;73.20;;;;;;5009004;28;20033;-78
2021/03/04 03:05:32;;;;;;;93.00;58.15;;;9.40;73.20;;;;;;5009729;28;20504;-78
2021/03/04 03:07:59;;;;;;;101.95;58.70;;;9.40;73.20;;;;;;5009168;28;20092;-77
2021/03/04 03:10:26;;;;;;;94.35;54.63;;;9.40;73.20;;;;;;5010500;28;20037;-78
2021/03/04 03:12:57;;;;;;;99.68;59.20;;;9.40;73.20;;;;;;5009683;28;20039;-77
2021/03/04 03:15:24;;;;;;;94.13;56.13;;;9.40;73.20;;;;;;5009587;28;20442;-78
2021/03/04 03:17:50;;;;;;;93.28;57.72;;;9.40;73.20;;;;;;5010430;28;20026;-77
2021/03/04 03:20:18;;;;;;;101.05;59.75;;;9.40;73.20;;;;;;5010137;28;20037;-77
2021/03/04 03:22:46;;;;;;;97.85;57.78;;;9.40;73.20;;;;;;5008963;28;20029;-77
2021/03/04 03:25:13;;;;;;;94.05;57.50;;;9.30;73.00;;;;;;5010075;28;20030;-77
2021/03/04 03:27:41;;;;;;;88.95;59.38;;;9.40;73.30;;;;;;5008440;28;20033;-77
2021/03/04 03:30:09;;;;;;;104.38;60.13;;;9.40;73.30;;;;;;5009807;28;20037;-78
2021/03/04 03:32:38;;;;;;;90.50;57.55;;;9.30;73.10;;;;;;5008281;28;20062;-78
2021/03/04 03:35:05;;;;;;;90.43;57.50;;;9.30;73.10;;;;;;5010632;28;20037;-77
2021/03/04 03:37:32;;;;;;;93.35;58.35;;;9.30;73.10;;;;;;5010224;28;20133;-78
2021/03/04 03:39:58;;;;;;;91.18;58.03;;;9.30;73.20;;;;;;5009969;28;20034;-77
2021/03/04 03:42:25;;;;;;;88.97;55.80;;;9.30;73.20;;;;;;5008707;28;20033;-77
2021/03/04 03:44:53;;;;;;;94.15;58.55;;;9.30;73.20;;;;;;5009640;28;20564;-77
2021/03/04 03:47:20;;;;;;;95.28;57.25;;;9.30;73.20;;;;;;5010272;28;20032;-77
2021/03/04 03:49:48;;;;;;;91.68;57.72;;;9.30;73.20;;;;;;5010167;28;20030;-78
2021/03/04 03:52:14;;;;;;;92.90;56.08;;;9.30;73.20;;;;;;5010294;28;20542;-77
2021/03/04 03:54:40;;;;;;;92.72;57.65;;;9.30;73.20;;;;;;5008286;28;20022;-77
2021/03/04 03:57:07;;;;;;;83.40;54.53;;;9.30;73.30;;;;;;5010370;28;20039;-77
2021/03/04 03:59:35;;;;;;;94.68;56.10;;;9.30;73.30;;;;;;5009636;28;20587;-77
2021/03/04 04:02:02;;;;;;;92.57;57.05;;;9.30;73.30;;;;;;5008172;28;20030;-77
2021/03/04 04:04:29;;;;;;;90.57;55.00;;;9.30;73.30;;;;;;5008489;28;20037;-77
2021/03/04 04:06:56;;;;;;;86.88;55.40;;;9.30;73.30;;;;;;5009689;28;20434;-77
2021/03/04 04:09:24;;;;;;;91.68;55.05;;;9.30;73.30;;;;;;4992429;28;20036;-77
2021/03/04 04:11:50;;;;;;;94.38;57.88;;;9.30;73.30;;;;;;5010249;28;20424;-77
2021/03/04 04:14:16;;;;;;;90.05;55.38;;;9.30;73.30;;;;;;5010026;28;20025;-77
2021/03/04 04:16:43;;;;;;;88.25;55.30;;;9.20;73.10;;;;;;5009837;28;20117;-77
2021/03/04 04:19:09;;;;;;;90.80;56.58;;;9.30;73.30;;;;;;5010378;28;20207;-77
2021/03/04 04:21:36;;;;;;;96.90;56.92;;;9.30;73.30;;;;;;4991743;28;20092;-77
2021/03/04 04:24:02;;;;;;;79.93;49.95;;;9.20;73.10;;;;;;5008461;28;20037;-77
2021/03/04 04:26:28;;;;;;;83.40;54.38;;;9.20;73.10;;;;;;5008296;28;20033;-77
2021/03/04 04:28:54;;;;;;;82.32;53.47;;;9.20;73.20;;;;;;5008357;28;20061;-77
2021/03/04 04:31:21;;;;;;;92.53;53.05;;;9.20;73.20;;;;;;5009560;28;20033;-77
2021/03/04 04:33:47;;;;;;;87.70;54.20;;;9.20;73.20;;;;;;5009674;28;20076;-77
2021/03/04 04:36:13;;;;;;;84.55;53.88;;;9.20;73.20;;;;;;4992050;28;20030;-77
2021/03/04 04:38:39;;;;;;;85.00;52.22;;;9.20;73.20;;;;;;4992090;28;20281;-77
2021/03/04 04:41:05;;;;;;;78.18;50.90;;;9.10;73.00;;;;;;5011411;28;20030;-77
2021/03/04 04:43:30;;;;;;;84.53;51.80;;;9.10;73.10;;;;;;4995826;28;20034;-77
2021/03/04 04:45:56;;;;;;;79.20;52.17;;;9.10;73.10;;;;;;4995850;28;20026;-77
2021/03/04 04:48:22;;;;;;;73.55;47.70;;;9.10;73.10;;;;;;5011492;28;20125;-78
2021/03/04 04:50:48;;;;;;;72.28;49.92;;;9.10;73.10;;;;;;5011445;28;20022;-76
2021/03/04 04:53:14;;;;;;;75.82;50.20;;;9.10;73.10;;;;;;5012029;28;20046;-78
2021/03/04 04:55:40;;;;;;;73.60;45.83;;;9.10;73.60;;;;;;4995440;28;20037;-77
2021/03/04 04:58:06;;;;;;;80.45;49.85;;;9.10;73.20;;;;;;5012055;28;20124;-77
2021/03/04 05:00:32;;;;;;;69.82;46.13;;;9.00;73.00;;;;;;4994272;28;20052;-76
2021/03/04 05:02:59;;;;;;;72.82;45.38;;;9.00;73.00;;;;;;4995112;28;20042;-77
2021/03/04 05:05:25;;;;;;;66.45;45.35;;;9.00;73.00;;;;;;5010937;28;20025;-77
2021/03/04 05:07:50;;;;;;;69.57;43.70;;;9.00;73.10;;;;;;5013199;28;20092;-78
2021/03/04 05:10:17;;;;;;;69.80;45.65;;;9.00;73.10;;;;;;4995566;28;20481;-77
2021/03/04 05:12:42;;;;;;;69.10;43.83;;;9.00;73.10;;;;;;5013180;28;20408;-77
2021/03/04 05:15:10;;;;;;;67.20;43.13;;;9.00;73.10;;;;;;5012047;28;20176;-77
2021/03/04 05:17:37;;;;;;;69.28;43.45;;;9.00;73.20;;;;;;5013007;28;20157;-77
2021/03/04 05:20:05;;;;;;;67.97;43.20;;;9.00;73.10;;;;;;5011812;28;20030;-77
2021/03/04 05:22:31;;;;;;;66.35;44.92;;;9.00;73.10;;;;;;5010924;28;20454;-78
2021/03/04 05:24:57;;;;;;;69.40;41.70;;;9.00;73.20;;;;;;5011167;28;20030;-76
2021/03/04 05:27:26;;;;;;;56.05;38.75;;;9.00;73.10;;;;;;4995196;28;20040;-78
2021/03/04 05:29:52;;;;;;;64.45;40.78;;;8.90;73.00;;;;;;5011205;28;20049;-77
2021/03/04 05:32:19;;;;;;;58.17;39.75;;;8.90;73.00;;;;;;5010940;28;20434;-77
2021/03/04 05:34:45;;;;;;;63.60;39.90;;;8.90;73.00;;;;;;5012932;28;20045;-77
2021/03/04 05:37:11;;;;;;;53.65;37.67;;;8.90;73.00;;;;;;5011028;28;20485;-76
2021/03/04 05:39:37;;;;;;;52.95;37.65;;;8.90;73.00;;;;;;4994699;28;20022;-77
2021/03/04 05:42:08;;;;;;;56.08;35.75;;;8.90;73.00;;;;;;5010126;28;20044;-78
2021/03/04 05:44:35;;;;;;;60.00;38.08;;;8.90;73.10;;;;;;4994534;28;20065;-76
2021/03/04 05:47:04;;;;;;;55.65;37.97;;;8.90;73.10;;;;;;5011975;28;20048;-77
2021/03/04 05:49:37;;;;;;;50.95;35.00;;;8.90;73.10;;;;;;4990636;28;20030;-76
2021/03/04 05:52:07;;;;;;;50.13;34.53;;;8.90;73.10;;;;;;4987571;28;20030;-76
2021/03/04 05:54:37;;;;;;;47.80;32.60;;;8.80;72.90;;;;;;5004131;28;20030;-76
2021/03/04 05:57:05;;;;;;;50.72;33.88;;;8.80;72.90;;;;;;5003844;28;20033;-76
2021/03/04 05:59:31;;;;;;;50.13;33.78;;;8.80;72.90;;;;;;5004098;28;20398;-76
2021/03/04 06:01:59;;;;;;;45.42;33.13;;;8.80;72.90;;;;;;4995012;28;20030;-77
2021/03/04 06:04:26;;;;;;;47.40;33.20;;;8.80;73.00;;;;;;5001557;28;20038;-78
2021/03/04 06:06:52;;;;;;;49.42;32.03;;;8.80;73.00;;;;;;4969671;28;20520;-78
2021/03/04 06:09:18;;;;;;;45.03;29.63;;;8.80;73.00;;;;;;5000594;28;20052;-77
2021/03/04 06:11:44;;;;;;;46.50;29.30;;;8.70;72.80;;;;;;4988925;28;20053;-77
2021/03/04 06:14:12;;;;;;;40.88;30.48;;;8.70;72.80;;;;;;5005922;28;20042;-76
2021/03/04 06:16:38;;;;;;;39.80;29.08;;;8.70;72.80;;;;;;5006510;28;20026;-77
2021/03/04 06:19:04;;;;;;;42.85;29.27;;;8.70;72.80;;;;;;4989069;28;20033;-77
2021/03/04 06:21:30;;;;;;;40.03;28.73;;;8.60;72.70;;;;;;5006436;28;20022;-78
2021/03/04 06:23:57;;;;;;;40.47;27.58;;;8.70;72.90;;;;;;4988694;28;20049;-78
2021/03/04 06:26:37;;;;;;;37.28;27.90;;;8.60;73.00;;;;;;4982349;28;20121;-79
2021/03/04 06:29:17;;;;;;;37.38;27.27;;;8.60;72.80;;;;;;5003763;28;20029;-78
2021/03/04 06:31:45;;;;;;;32.22;24.88;;;8.60;72.80;;;;;;5007427;28;20033;-78
2021/03/04 06:34:30;;;;;;;39.38;27.00;;;8.60;72.80;;;;;;5005029;28;20073;-77
2021/03/04 06:36:57;;;;;;;35.08;25.05;;;8.60;72.80;;;;;;4988776;28;20377;-77
2021/03/04 06:39:24;;;;;;;38.63;25.30;;;8.60;72.80;;;;;;4988695;28;20105;-78
2021/03/04 06:42:00;;;;;;;36.88;24.58;;;8.60;72.80;;;;;;5006474;28;20042;-80
2021/03/04 06:44:26;;;;;;;33.00;24.50;;;8.60;72.80;;;;;;5005932;28;20042;-77
2021/03/04 06:46:53;;;;;;;34.55;23.20;;;8.60;72.80;;;;;;5006595;28;20033;-78
2021/03/04 06:49:19;;;;;;;31.73;23.33;;;8.50;72.70;;;;;;4986637;28;20897;-79
2021/03/04 06:51:46;;;;;;;33.10;22.35;;;8.50;72.70;;;;;;5002174;28;20110;-78
2021/03/04 06:54:22;;;;;;;30.75;22.33;;;8.50;72.70;;;;;;5004892;28;20049;-81
2021/03/04 06:56:48;;;;;;;33.35;22.48;;;8.50;72.70;;;;;;5007428;28;20133;-77
2021/03/04 06:59:14;;;;;;;29.75;21.63;;;8.50;72.70;;;;;;5023317;28;20086;-81
2021/03/04 07:01:41;;;;;;;32.08;21.25;;;8.40;72.50;;;;;;5004183;28;20056;-79
2021/03/04 07:04:13;;;;;;;26.05;20.98;;;8.50;72.80;;;;;;4996477;28;20474;-78
2021/03/04 07:06:40;;;;;;;30.40;20.88;;;8.40;72.60;;;;;;5006312;28;20030;-77
2021/03/04 07:09:07;;;;;;;27.42;21.20;;;8.40;72.70;;;;;;5000565;28;20519;-79
2021/03/04 07:11:35;;;;;;;33.33;22.10;;;8.50;73.30;;;;;;5005278;28;20092;-78
2021/03/04 07:14:03;;;;;;;31.90;20.65;;;8.60;73.70;;;;;;5007270;28;20022;-81
2021/03/04 07:16:43;;;;;;;26.05;19.85;;;8.60;73.60;;;;;;5004332;28;20398;-80
2021/03/04 07:19:12;;;;;;;28.13;20.25;;;8.70;73.90;;;;;;5005370;28;20047;-77
2021/03/04 07:21:47;;;;;;;24.23;18.50;;;8.70;73.80;;;;;;4988664;28;20036;-78
2021/03/04 07:24:13;;;;;;;28.00;20.98;;;8.80;73.90;;;;;;5006019;28;20069;-77
2021/03/04 07:26:39;;;;;;;28.05;18.73;;;8.70;73.70;;;;;;5004445;28;20033;-77
2021/03/04 07:29:08;;;;;;;28.55;17.88;;;8.80;74.00;;;;;;4994201;28;20031;-77
2021/03/04 07:31:37;;;;;;;28.00;17.02;;;8.80;74.00;;;;;;4984490;28;20031;-78
2021/03/04 07:34:04;;;;;;;24.92;19.25;;;8.70;73.90;;;;;;4979647;28;20124;-78
2021/03/04 07:36:30;;;;;;;28.80;18.90;;;8.70;73.90;;;;;;4982901;28;20026;-79
2021/03/04 07:38:58;;;;;;;23.40;18.20;;;8.70;74.00;;;;;;4986624;28;20034;-75
2021/03/04 07:41:39;;;;;;;24.58;17.80;;;8.70;74.00;;;;;;5002815;28;20030;-76
2021/03/04 07:44:07;;;;;;;26.35;17.02;;;8.70;74.10;;;;;;5003587;28;20129;-76
2021/03/04 07:46:51;;;;;;;25.67;17.73;;;8.70;74.10;;;;;;4985401;28;20030;-77
2021/03/04 07:49:31;;;;;;;28.63;18.55;;;8.60;73.90;;;;;;5003382;28;20037;-76
2021/03/04 07:52:33;;;;;;;21.50;16.17;;;8.60;73.90;;;;;;5004833;28;20030;-79
2021/03/04 07:55:10;;;;;;;23.77;17.00;;;8.60;74.00;;;;;;4948330;28;20046;-79
2021/03/04 07:57:48;;;;;;;21.25;15.52;;;8.60;73.90;;;;;;5000083;28;20524;-78
2021/03/04 08:00:16;;;;;;;23.63;16.30;;;8.60;74.00;;;;;;5020764;28;20088;-79
2021/03/04 08:02:46;;;;;;;19.95;14.57;;;8.60;74.00;;;;;;5003620;28;20098;-77
2021/03/04 08:05:13;;;;;;;17.70;15.52;;;8.60;74.00;;;;;;5005725;28;20493;-77
2021/03/04 08:07:42;;;;;;;23.83;16.27;;;8.60;74.00;;;;;;5004267;28;20488;-76
2021/03/04 08:10:20;;;;;;;20.08;15.52;;;8.60;74.00;;;;;;4988472;28;20037;-76
2021/03/04 08:12:50;;;;;;;19.45;15.23;;;8.60;74.00;;;;;;5005435;28;20432;-77
2021/03/04 08:15:17;;;;;;;19.40;14.52;;;8.60;74.00;;;;;;5004474;28;20052;-77
2021/03/04 08:17:44;;;;;;;18.08;15.13;;;8.60;74.00;;;;;;5005006;28;20444;-78
2021/03/04 08:20:13;;;;;;;22.75;16.40;;;8.60;74.00;;;;;;5005729;28;20026;-77
2021/03/04 08:22:51;;;;;;;23.88;15.95;;;8.60;73.90;;;;;;5006994;28;20026;-79
2021/03/04 08:25:28;;;;;;;19.85;15.02;;;8.70;74.10;;;;;;5024360;28;20045;-76
2021/03/04 08:27:55;;;;;;;18.58;13.98;;;8.70;74.00;;;;;;5023977;28;20100;-78
2021/03/04 08:30:33;;;;;;;21.35;15.45;;;8.70;74.00;;;;;;5008503;28;20109;-76
2021/03/04 08:33:10;;;;;;;19.85;14.30;;;8.70;74.00;;;;;;5009365;28;20077;-78
2021/03/04 08:35:38;;;;;;;17.42;13.98;;;8.70;73.90;;;;;;4999522;28;20026;-79
2021/03/04 08:38:09;;;;;;;19.67;15.27;;;8.70;73.90;;;;;;4991257;28;20569;-80
2021/03/04 08:40:42;;;;;;;17.45;13.85;;;8.70;73.90;;;;;;5009891;28;20128;-77
2021/03/04 08:43:09;;;;;;;22.20;14.73;;;8.70;73.90;;;;;;5008502;28;20187;-78
2021/03/04 08:45:35;;;;;;;19.23;14.85;;;8.80;74.00;;;;;;5008124;28;20149;-78
2021/03/04 08:48:07;;;;;;;22.17;15.00;;;8.70;73.80;;;;;;5008077;28;20029;-77
2021/03/04 08:50:41;;;;;;;19.60;13.32;;;8.80;74.00;;;;;;5006320;28;20034;-79
2021/03/04 08:53:27;;;;;;;20.58;15.57;;;8.80;73.90;;;;;;5011355;28;20381;-79
2021/03/04 08:55:55;;;;;;;22.73;15.55;;;8.80;73.90;;;;;;4990673;28;20041;-80
2021/03/04 08:58:22;;;;;;;20.70;15.07;;;8.80;73.80;;;;;;5005801;28;20337;-77
2021/03/04 09:01:03;;;;;;;20.42;15.88;;;8.80;73.80;;;;;;5004936;28;20113;-77
2021/03/04 09:03:38;;;;;;;20.90;15.32;;;8.80;73.80;;;;;;5007954;28;20050;-75
2021/03/04 09:06:04;;;;;;;18.92;14.32;;;8.80;73.70;;;;;;4992154;28;20042;-79
2021/03/04 09:08:50;;;;;;;18.20;14.75;;;8.90;73.90;;;;;;5008062;28;20029;-76
2021/03/04 09:11:29;;;;;;;20.98;15.32;;;8.90;73.90;;;;;;5009690;28;20033;-79
2021/03/04 09:14:11;;;;;;;21.50;15.20;;;8.90;73.90;;;;;;4991863;28;20525;-75
2021/03/04 09:16:50;;;;;;;21.15;16.35;;;9.00;74.00;;;;;;5018945;28;20034;-76
2021/03/04 09:19:39;;;;;;;22.10;16.23;;;9.00;73.90;;;;;;5006491;28;20068;-75
2021/03/04 09:22:08;;;;;;;22.10;15.93;;;9.10;74.60;;;;;;4991488;28;20090;-76
2021/03/04 09:24:37;;;;;;;21.95;16.63;;;9.10;74.00;;;;;;4991381;28;20041;-75
2021/03/04 09:27:04;;;;;;;21.52;16.40;;;9.10;73.90;;;;;;4994049;28;20053;-79
2021/03/04 09:29:32;;;;;;;25.40;17.77;;;9.10;73.80;;;;;;4994811;28;20037;-74
2021/03/04 09:31:59;;;;;;;21.23;17.10;;;9.20;73.90;;;;;;4995057;28;20098;-78
2021/03/04 09:34:35;;;;;;;20.77;16.77;;;9.20;73.90;;;;;;5013151;28;20110;-78
2021/03/04 09:37:07;;;;;;;24.20;17.58;;;9.30;74.10;;;;;;5011844;28;20041;-78
2021/03/04 09:39:54;;;;;;;26.70;19.10;;;9.30;74.00;;;;;;5013301;28;20112;-84
2021/03/04 09:42:34;;;;;;;24.48;17.52;;;9.40;74.10;;;;;;5028051;28;20057;-78
2021/03/04 09:45:11;;;;;;;25.08;17.95;;;9.40;73.90;;;;;;5012079;28;20042;-78
2021/03/04 09:47:43;;;;;;;30.20;20.08;;;9.50;74.00;;;;;;5008114;28;20372;-77
2021/03/04 09:50:26;;;;;;;27.85;18.98;;;9.50;73.90;;;;;;5006266;28;20034;-75
2021/03/04 09:53:03;;;;;;;29.88;19.85;;;9.60;74.00;;;;;;5005653;28;20030;-78
2021/03/04 09:55:40;;;;;;;28.55;19.88;;;9.70;74.10;;;;;;4990544;28;20026;-79
2021/03/04 09:58:12;;;;;;;30.20;21.10;;;9.80;74.10;;;;;;4989556;28;20141;-77
2021/03/04 10:00:39;;;;;;;30.52;21.00;;;9.80;73.90;;;;;;4988618;28;20080;-76
2021/03/04 10:03:10;;;;;;;34.10;20.60;;;9.90;74.00;;;;;;5005730;28;20034;-75
2021/03/04 10:05:48;;;;;;;29.90;20.83;;;9.90;73.90;;;;;;4990332;28;20064;-76
2021/03/04 10:08:15;;;;;;;34.75;21.08;;;9.90;73.90;;;;;;4989248;28;20503;-77
2021/03/04 10:10:41;;;;;;;37.45;22.15;;;10.00;73.90;;;;;;5005570;28;20037;-77
2021/03/04 10:13:08;;;;;;;30.30;22.15;;;10.00;73.90;;;;;;5005101;28;20036;-76
2021/03/04 10:15:41;;;;;;;33.47;22.30;;;10.00;73.80;;;;;;4989992;28;20125;-76
2021/03/04 10:18:07;;;;;;;;;;;10.10;73.90;;;;;;4990058;28;20068;-77
2021/03/04 10:20:35;;;;;;;34.75;21.55;;;10.10;73.90;;;;;;5022625;28;19968;-76
2021/03/04 10:23:02;;;;;;;38.17;24.30;;;10.10;73.80;;;;;;5007064;28;20080;-77
2021/03/04 10:25:28;;;;;;;36.83;22.45;;;10.10;73.70;;;;;;5006014;28;20038;-77
2021/03/04 10:27:55;;;;;;;39.75;24.17;;;10.10;73.70;;;;;;5006480;28;20026;-76
2021/03/04 10:30:22;;;;;;;39.47;25.38;;;10.10;73.70;;;;;;5005077;28;20226;-76
2021/03/04 10:32:48;;;;;;;40.00;25.65;;;10.10;73.60;;;;;;5003957;28;20469;-77
2021/03/04 10:35:16;;;;;;;42.70;26.02;;;10.10;73.60;;;;;;5006818;28;20521;-76
2021/03/04 10:37:43;;;;;;;38.13;25.67;;;10.10;73.50;;;;;;5006201;28;20076;-78
2021/03/04 10:40:11;;;;;;;39.70;25.00;;;10.10;73.50;;;;;;5005173;28;20201;-77
2021/03/04 10:42:37;;;;;;;34.33;23.80;;;10.10;73.50;;;;;;5005678;28;20038;-77
2021/03/04 10:45:09;;;;;;;43.13;25.38;;;10.10;73.50;;;;;;5005239;28;20438;-77
2021/03/04 10:47:36;;;;;;;42.80;26.35;;;10.10;73.50;;;;;;5005180;28;20551;-76
2021/03/04 10:50:04;;;;;;;41.10;26.02;;;10.10;73.50;;;;;;5004798;28;20029;-76
2021/03/04 10:52:30;;;;;;;48.50;28.52;;;10.10;73.50;;;;;;5006383;28;20034;-77
2021/03/04 10:54:57;;;;;;;42.45;25.17;;;10.10;73.50;;;;;;5006444;28;20034;-76
2021/03/04 10:57:23;;;;;;;41.40;27.23;;;10.10;73.50;;;;;;5005413;28;20501;-76
2021/03/04 10:59:49;;;;;;;41.70;24.33;;;10.10;73.50;;;;;;5023789;28;20050;-77
2021/03/04 11:02:15;;;;;;;38.35;23.83;;;10.20;73.80;;;;;;5004003;28;20444;-77
2021/03/04 11:04:42;;;;;;;43.88;25.08;;;10.20;74.00;;;;;;5006233;28;20108;-76
2021/03/04 11:07:08;;;;;;;44.08;25.40;;;10.30;74.20;;;;;;5004559;28;20386;-76
2021/03/04 11:09:34;;;;;;;42.75;26.80;;;10.50;74.40;;;;;;5020677;28;20033;-76
2021/03/04 11:12:01;;;;;;;49.83;28.58;;;10.50;74.20;;;;;;5004350;28;20030;-77
2021/03/04 11:14:27;;;;;;;46.05;27.52;;;10.60;74.30;;;;;;5005844;28;20404;-76
2021/03/04 11:16:53;;;;;;;44.10;26.17;;;10.60;74.10;;;;;;5005406;28;20041;-76
2021/03/04 11:19:19;;;;;;;51.35;28.67;;;10.60;74.00;;;;;;5005288;28;20032;-76
2021/03/04 11:21:46;;;;;;;46.13;29.08;;;10.70;74.10;;;;;;5006483;28;20022;-75
2021/03/04 11:24:13;;;;;;;43.92;26.80;;;10.70;74.00;;;;;;5005065;28;20038;-76
2021/03/04 11:26:40;;;;;;;48.05;26.85;;;10.70;74.00;;;;;;5006734;28;20501;-77
2021/03/04 11:29:07;;;;;;;46.80;27.58;;;10.70;73.90;;;;;;4988985;28;20033;-76
2021/03/04 11:31:37;;;;;;;48.53;27.33;;;10.70;73.80;;;;;;5005183;28;20050;-76
2021/03/04 11:34:04;;;;;;;51.17;29.58;;;10.70;73.70;;;;;;4991925;28;20030;-76
2021/03/04 11:36:32;;;;;;;46.58;29.23;;;10.70;73.60;;;;;;4986747;28;20416;-75
2021/03/04 11:38:59;;;;;;;49.15;29.00;;;10.70;73.50;;;;;;4995935;28;20100;-76
2021/03/04 11:41:26;;;;;;;46.53;28.25;;;10.70;73.50;;;;;;5003969;28;20044;-76
2021/03/04 11:43:52;;;;;;;50.75;29.63;;;10.70;73.40;;;;;;5004782;28;20034;-76
2021/03/04 11:46:21;;;;;;;49.50;28.55;;;10.70;73.30;;;;;;5004723;28;20048;-77
2021/03/04 11:48:48;;;;;;;52.85;29.70;;;10.70;73.30;;;;;;4987653;28;20041;-77
2021/03/04 11:51:16;;;;;;;42.83;28.48;;;10.80;73.40;;;;;;5003379;28;20095;-77
2021/03/04 11:53:43;;;;;;;49.83;30.85;;;10.70;73.20;;;;;;5005570;28;20034;-77
2021/03/04 11:56:09;;;;;;;50.50;29.48;;;10.80;73.40;;;;;;5004033;28;20064;-79
2021/03/04 11:58:36;;;;;;;54.35;30.80;;;10.80;73.30;;;;;;4988217;28;20046;-79
2021/03/04 12:01:02;;;;;;;53.00;31.20;;;10.80;73.30;;;;;;5003860;28;20128;-78
2021/03/04 12:03:31;;;;;;;51.25;31.00;;;10.90;73.50;;;;;;5005429;28;20196;-78
2021/03/04 12:05:58;;;;;;;48.35;28.90;;;11.00;73.50;;;;;;5004167;28;20472;-79
2021/03/04 12:08:24;;;;;;;54.95;30.38;;;11.00;73.40;;;;;;5004607;28;20069;-78
2021/03/04 12:10:51;;;;;;;47.03;29.30;;;11.10;73.40;;;;;;5005840;28;20473;-77
2021/03/04 12:13:17;;;;;;;49.40;30.52;;;11.20;73.50;;;;;;5020540;28;20037;-77
2021/03/04 12:15:43;;;;;;;58.25;30.38;;;11.30;73.50;;;;;;5003969;28;20038;-76
2021/03/04 12:18:09;;;;;;;61.33;31.88;;;11.30;73.40;;;;;;5003618;28;20056;-78
2021/03/04 12:20:36;;;;;;;52.63;29.52;;;11.40;73.40;;;;;;5003941;28;20503;-78
2021/03/04 12:23:03;;;;;;;50.55;29.40;;;11.50;73.40;;;;;;5003523;28;20554;-76
2021/03/04 12:25:29;;;;;;;43.17;28.65;;;11.60;73.50;;;;;;5003295;28;20033;-78
2021/03/04 12:27:55;;;;;;;45.05;29.20;;;11.70;73.40;;;;;;5019753;28;20442;-77
2021/03/04 12:30:22;;;;;;;42.97;29.95;;;11.80;73.50;;;;;;5003962;28;20049;-79
2021/03/04 12:32:48;;;;;;;54.33;30.98;;;11.90;73.40;;;;;;5006396;28;20030;-77
2021/03/04 12:35:15;;;;;;;44.50;28.17;;;11.90;73.80;;;;;;5005325;28;20034;-78
2021/03/04 12:37:42;;;;;;;43.30;27.25;;;12.00;73.30;;;;;;5009300;28;20137;-82
2021/03/04 12:40:09;;;;;;;43.83;27.52;;;12.10;73.80;;;;;;5007826;28;20034;-77
2021/03/04 12:42:35;;;;;;;44.65;27.60;;;12.10;73.10;;;;;;5003486;28;20029;-78